sensor_id;sensor_type;location;lat;lon;timestamp;P1;durP1;ratioP1;P2;durP2;ratioP2
25549;SDS011;13444;50.562;7.262;2023-05-10T00:00:36;1.13;;;0.65;;
25549;SDS011;13444;50.562;7.262;2023-05-10T00:03:02;1.30;;;0.60;;
25549;SDS011;13444;50.562;7.262;2023-05-10T00:05:29;1.80;;;0.60;;
25549;SDS011;13444;50.562;7.262;2023-05-10T00:07:55;1.10;;;0.57;;
25549;SDS011;13444;50.562;7.262;2023-05-10T00:10:21;0.40;;;0.40;;
25549;SDS011;13444;50.562;7.262;2023-05-10T00:12:46;0.73;;;0.60;;
25549;SDS011;13444;50.562;7.262;2023-05-10T00:15:12;1.65;;;0.57;;
25549;SDS011;13444;50.562;7.262;2023-05-10T00:17:37;1.42;;;0.50;;
25549;SDS011;13444;50.562;7.262;2023-05-10T00:20:03;0.50;;;0.40;;
25549;SDS011;13444;50.562;7.262;2023-05-10T00:22:29;1.60;;;0.57;;
25549;SDS011;13444;50.562;7.262;2023-05-10T00:24:55;0.68;;;0.63;;
25549;SDS011;13444;50.562;7.262;2023-05-10T00:27:21;0.40;;;0.40;;
25549;SDS011;13444;50.562;7.262;2023-05-10T00:29:46;1.55;;;0.50;;
25549;SDS011;13444;50.562;7.262;2023-05-10T00:32:12;0.40;;;0.40;;
25549;SDS011;13444;50.562;7.262;2023-05-10T00:34:38;1.92;;;0.70;;
25549;SDS011;13444;50.562;7.262;2023-05-10T00:37:04;1.05;;;0.40;;
25549;SDS011;13444;50.562;7.262;2023-05-10T00:39:30;2.08;;;0.50;;
25549;SDS011;13444;50.562;7.262;2023-05-10T00:41:56;1.90;;;0.40;;
25549;SDS011;13444;50.562;7.262;2023-05-10T00:44:21;0.98;;;0.65;;
25549;SDS011;13444;50.562;7.262;2023-05-10T00:46:48;1.92;;;0.80;;
25549;SDS011;13444;50.562;7.262;2023-05-10T00:49:14;2.20;;;0.50;;
25549;SDS011;13444;50.562;7.262;2023-05-10T00:51:41;1.08;;;0.60;;
25549;SDS011;13444;50.562;7.262;2023-05-10T00:54:07;1.02;;;0.70;;
25549;SDS011;13444;50.562;7.262;2023-05-10T00:56:36;0.68;;;0.45;;
25549;SDS011;13444;50.562;7.262;2023-05-10T00:59:01;0.52;;;0.52;;
25549;SDS011;13444;50.562;7.262;2023-05-10T01:01:27;2.83;;;0.60;;
25549;SDS011;13444;50.562;7.262;2023-05-10T01:03:54;0.93;;;0.60;;
25549;SDS011;13444;50.562;7.262;2023-05-10T01:06:20;1.10;;;0.60;;
25549;SDS011;13444;50.562;7.262;2023-05-10T01:08:46;0.73;;;0.50;;
25549;SDS011;13444;50.562;7.262;2023-05-10T01:11:12;1.95;;;0.63;;
25549;SDS011;13444;50.562;7.262;2023-05-10T01:13:38;0.65;;;0.57;;
25549;SDS011;13444;50.562;7.262;2023-05-10T01:16:06;0.63;;;0.52;;
25549;SDS011;13444;50.562;7.262;2023-05-10T01:18:36;0.57;;;0.57;;
25549;SDS011;13444;50.562;7.262;2023-05-10T01:21:14;0.68;;;0.50;;
25549;SDS011;13444;50.562;7.262;2023-05-10T01:27:02;0.70;;;0.60;;
25549;SDS011;13444;50.562;7.262;2023-05-10T01:30:00;2.83;;;0.70;;
25549;SDS011;13444;50.562;7.262;2023-05-10T01:35:10;2.45;;;0.70;;
25549;SDS011;13444;50.562;7.262;2023-05-10T01:43:26;2.40;;;0.70;;
25549;SDS011;13444;50.562;7.262;2023-05-10T01:46:02;2.17;;;0.50;;
25549;SDS011;13444;50.562;7.262;2023-05-10T01:48:36;0.60;;;0.60;;
25549;SDS011;13444;50.562;7.262;2023-05-10T01:51:05;0.93;;;0.50;;
25549;SDS011;13444;50.562;7.262;2023-05-10T01:53:31;1.38;;;0.77;;
25549;SDS011;13444;50.562;7.262;2023-05-10T01:56:01;2.40;;;0.85;;
25549;SDS011;13444;50.562;7.262;2023-05-10T01:58:28;2.03;;;0.60;;
25549;SDS011;13444;50.562;7.262;2023-05-10T02:00:56;2.45;;;0.70;;
25549;SDS011;13444;50.562;7.262;2023-05-10T02:03:25;1.40;;;0.60;;
25549;SDS011;13444;50.562;7.262;2023-05-10T02:05:53;2.75;;;0.65;;
25549;SDS011;13444;50.562;7.262;2023-05-10T02:08:21;1.55;;;0.70;;
25549;SDS011;13444;50.562;7.262;2023-05-10T02:10:47;1.45;;;0.57;;
25549;SDS011;13444;50.562;7.262;2023-05-10T02:13:16;2.05;;;0.70;;
25549;SDS011;13444;50.562;7.262;2023-05-10T02:15:43;0.63;;;0.60;;
25549;SDS011;13444;50.562;7.262;2023-05-10T02:18:12;0.70;;;0.40;;
25549;SDS011;13444;50.562;7.262;2023-05-10T02:20:39;2.22;;;0.60;;
25549;SDS011;13444;50.562;7.262;2023-05-10T02:23:06;1.38;;;0.60;;
25549;SDS011;13444;50.562;7.262;2023-05-10T02:25:33;0.40;;;0.40;;
25549;SDS011;13444;50.562;7.262;2023-05-10T02:28:00;0.68;;;0.60;;
25549;SDS011;13444;50.562;7.262;2023-05-10T02:30:28;2.50;;;0.73;;
25549;SDS011;13444;50.562;7.262;2023-05-10T02:32:55;1.13;;;0.70;;
25549;SDS011;13444;50.562;7.262;2023-05-10T02:35:22;1.95;;;0.77;;
25549;SDS011;13444;50.562;7.262;2023-05-10T02:37:48;0.65;;;0.65;;
25549;SDS011;13444;50.562;7.262;2023-05-10T02:40:15;3.70;;;0.70;;
25549;SDS011;13444;50.562;7.262;2023-05-10T02:42:43;0.60;;;0.60;;
25549;SDS011;13444;50.562;7.262;2023-05-10T02:45:11;1.00;;;0.70;;
25549;SDS011;13444;50.562;7.262;2023-05-10T02:47:40;1.27;;;0.70;;
25549;SDS011;13444;50.562;7.262;2023-05-10T02:50:06;0.70;;;0.70;;
25549;SDS011;13444;50.562;7.262;2023-05-10T02:52:46;0.88;;;0.68;;
25549;SDS011;13444;50.562;7.262;2023-05-10T02:55:15;1.85;;;0.80;;
25549;SDS011;13444;50.562;7.262;2023-05-10T02:57:46;0.73;;;0.60;;
25549;SDS011;13444;50.562;7.262;2023-05-10T03:00:16;1.80;;;0.70;;
25549;SDS011;13444;50.562;7.262;2023-05-10T03:02:42;3.38;;;0.50;;
25549;SDS011;13444;50.562;7.262;2023-05-10T03:05:07;1.00;;;0.60;;
25549;SDS011;13444;50.562;7.262;2023-05-10T03:07:33;0.80;;;0.60;;
25549;SDS011;13444;50.562;7.262;2023-05-10T03:09:59;1.08;;;0.73;;
25549;SDS011;13444;50.562;7.262;2023-05-10T03:18:07;1.58;;;0.60;;
25549;SDS011;13444;50.562;7.262;2023-05-10T03:20:41;1.42;;;0.65;;
25549;SDS011;13444;50.562;7.262;2023-05-10T03:25:43;1.27;;;1.02;;
25549;SDS011;13444;50.562;7.262;2023-05-10T03:28:12;1.65;;;0.90;;
25549;SDS011;13444;50.562;7.262;2023-05-10T03:30:39;0.93;;;0.80;;
25549;SDS011;13444;50.562;7.262;2023-05-10T03:33:06;0.70;;;0.70;;
25549;SDS011;13444;50.562;7.262;2023-05-10T03:35:32;3.13;;;0.90;;
25549;SDS011;13444;50.562;7.262;2023-05-10T03:37:57;1.63;;;0.90;;
25549;SDS011;13444;50.562;7.262;2023-05-10T03:40:23;1.63;;;1.00;;
25549;SDS011;13444;50.562;7.262;2023-05-10T03:42:49;1.00;;;0.80;;
25549;SDS011;13444;50.562;7.262;2023-05-10T03:45:15;1.63;;;0.90;;
25549;SDS011;13444;50.562;7.262;2023-05-10T03:47:40;1.02;;;0.77;;
25549;SDS011;13444;50.562;7.262;2023-05-10T03:50:06;1.33;;;0.90;;
25549;SDS011;13444;50.562;7.262;2023-05-10T03:52:32;0.75;;;0.75;;
25549;SDS011;13444;50.562;7.262;2023-05-10T03:54:58;1.48;;;0.90;;
25549;SDS011;13444;50.562;7.262;2023-05-10T03:57:23;0.75;;;0.75;;
25549;SDS011;13444;50.562;7.262;2023-05-10T03:59:49;0.93;;;0.80;;
25549;SDS011;13444;50.562;7.262;2023-05-10T04:02:15;0.70;;;0.70;;
25549;SDS011;13444;50.562;7.262;2023-05-10T04:04:40;1.35;;;0.93;;
25549;SDS011;13444;50.562;7.262;2023-05-10T04:07:06;1.75;;;1.13;;
25549;SDS011;13444;50.562;7.262;2023-05-10T04:09:31;1.23;;;1.10;;
25549;SDS011;13444;50.562;7.262;2023-05-10T04:11:58;1.13;;;0.82;;
25549;SDS011;13444;50.562;7.262;2023-05-10T04:14:24;3.35;;;0.93;;
25549;SDS011;13444;50.562;7.262;2023-05-10T04:16:49;2.80;;;1.42;;
25549;SDS011;13444;50.562;7.262;2023-05-10T04:19:15;2.45;;;1.15;;
25549;SDS011;13444;50.562;7.262;2023-05-10T04:21:40;2.58;;;1.50;;
25549;SDS011;13444;50.562;7.262;2023-05-10T04:24:06;1.45;;;1.30;;
25549;SDS011;13444;50.562;7.262;2023-05-10T04:26:31;1.88;;;1.23;;
25549;SDS011;13444;50.562;7.262;2023-05-10T04:28:57;2.00;;;1.45;;
25549;SDS011;13444;50.562;7.262;2023-05-10T04:31:22;1.30;;;1.20;;
25549;SDS011;13444;50.562;7.262;2023-05-10T04:33:48;1.33;;;1.05;;
25549;SDS011;13444;50.562;7.262;2023-05-10T04:36:14;3.70;;;1.40;;
25549;SDS011;13444;50.562;7.262;2023-05-10T04:38:40;4.20;;;1.63;;
25549;SDS011;13444;50.562;7.262;2023-05-10T04:41:09;1.70;;;1.60;;
25549;SDS011;13444;50.562;7.262;2023-05-10T04:43:35;4.03;;;2.10;;
25549;SDS011;13444;50.562;7.262;2023-05-10T04:46:01;3.08;;;1.95;;
25549;SDS011;13444;50.562;7.262;2023-05-10T04:48:27;4.88;;;2.60;;
25549;SDS011;13444;50.562;7.262;2023-05-10T04:50:53;5.05;;;2.60;;
25549;SDS011;13444;50.562;7.262;2023-05-10T04:53:19;3.05;;;2.38;;
25549;SDS011;13444;50.562;7.262;2023-05-10T04:55:44;4.15;;;2.97;;
25549;SDS011;13444;50.562;7.262;2023-05-10T04:58:10;5.00;;;3.17;;
25549;SDS011;13444;50.562;7.262;2023-05-10T05:00:36;4.55;;;3.10;;
25549;SDS011;13444;50.562;7.262;2023-05-10T05:03:01;4.25;;;3.33;;
25549;SDS011;13444;50.562;7.262;2023-05-10T05:05:27;4.50;;;3.33;;
25549;SDS011;13444;50.562;7.262;2023-05-10T05:07:53;5.95;;;3.35;;
25549;SDS011;13444;50.562;7.262;2023-05-10T05:10:18;5.55;;;3.50;;
25549;SDS011;13444;50.562;7.262;2023-05-10T05:12:44;5.85;;;3.65;;
25549;SDS011;13444;50.562;7.262;2023-05-10T05:15:10;6.50;;;3.63;;
25549;SDS011;13444;50.562;7.262;2023-05-10T05:17:36;23.58;;;5.13;;
25549;SDS011;13444;50.562;7.262;2023-05-10T05:20:02;16.48;;;6.00;;
25549;SDS011;13444;50.562;7.262;2023-05-10T05:22:28;17.35;;;5.40;;
25549;SDS011;13444;50.562;7.262;2023-05-10T05:24:54;9.77;;;4.63;;
25549;SDS011;13444;50.562;7.262;2023-05-10T05:27:20;9.68;;;4.78;;
25549;SDS011;13444;50.562;7.262;2023-05-10T05:29:52;8.02;;;3.83;;
25549;SDS011;13444;50.562;7.262;2023-05-10T05:32:19;6.85;;;3.90;;
25549;SDS011;13444;50.562;7.262;2023-05-10T05:34:45;7.53;;;3.63;;
25549;SDS011;13444;50.562;7.262;2023-05-10T05:37:14;7.35;;;4.00;;
25549;SDS011;13444;50.562;7.262;2023-05-10T05:39:40;6.18;;;3.40;;
25549;SDS011;13444;50.562;7.262;2023-05-10T05:42:07;7.65;;;3.22;;
25549;SDS011;13444;50.562;7.262;2023-05-10T05:44:36;5.97;;;2.88;;
25549;SDS011;13444;50.562;7.262;2023-05-10T05:47:02;4.18;;;2.67;;
25549;SDS011;13444;50.562;7.262;2023-05-10T05:49:28;14.05;;;3.40;;
25549;SDS011;13444;50.562;7.262;2023-05-10T05:51:54;6.90;;;2.70;;
25549;SDS011;13444;50.562;7.262;2023-05-10T05:54:19;8.45;;;2.83;;
25549;SDS011;13444;50.562;7.262;2023-05-10T05:56:45;7.90;;;3.42;;
25549;SDS011;13444;50.562;7.262;2023-05-10T05:59:10;6.03;;;3.22;;
25549;SDS011;13444;50.562;7.262;2023-05-10T06:01:36;5.93;;;3.28;;
25549;SDS011;13444;50.562;7.262;2023-05-10T06:04:02;7.28;;;3.63;;
25549;SDS011;13444;50.562;7.262;2023-05-10T06:06:28;5.93;;;2.88;;
25549;SDS011;13444;50.562;7.262;2023-05-10T06:08:53;5.88;;;3.53;;
25549;SDS011;13444;50.562;7.262;2023-05-10T06:11:19;5.40;;;4.13;;
25549;SDS011;13444;50.562;7.262;2023-05-10T06:13:45;5.90;;;4.13;;
25549;SDS011;13444;50.562;7.262;2023-05-10T06:16:12;5.68;;;3.65;;
25549;SDS011;13444;50.562;7.262;2023-05-10T06:18:38;4.20;;;3.20;;
25549;SDS011;13444;50.562;7.262;2023-05-10T06:21:03;6.50;;;3.95;;
25549;SDS011;13444;50.562;7.262;2023-05-10T06:23:29;3.60;;;2.95;;
25549;SDS011;13444;50.562;7.262;2023-05-10T06:25:54;4.22;;;3.50;;
25549;SDS011;13444;50.562;7.262;2023-05-10T06:28:20;3.15;;;2.85;;
25549;SDS011;13444;50.562;7.262;2023-05-10T06:30:46;3.85;;;2.30;;
25549;SDS011;13444;50.562;7.262;2023-05-10T06:33:11;5.68;;;2.80;;
25549;SDS011;13444;50.562;7.262;2023-05-10T06:35:37;3.88;;;2.30;;
25549;SDS011;13444;50.562;7.262;2023-05-10T06:38:03;2.70;;;2.10;;
25549;SDS011;13444;50.562;7.262;2023-05-10T06:40:29;3.40;;;2.10;;
25549;SDS011;13444;50.562;7.262;2023-05-10T06:42:55;3.63;;;2.10;;
25549;SDS011;13444;50.562;7.262;2023-05-10T06:45:20;3.45;;;2.03;;
25549;SDS011;13444;50.562;7.262;2023-05-10T06:47:46;2.20;;;1.90;;
25549;SDS011;13444;50.562;7.262;2023-05-10T06:50:11;4.50;;;2.05;;
25549;SDS011;13444;50.562;7.262;2023-05-10T06:52:37;2.90;;;1.83;;
25549;SDS011;13444;50.562;7.262;2023-05-10T06:55:03;2.35;;;2.03;;
25549;SDS011;13444;50.562;7.262;2023-05-10T06:57:29;2.80;;;1.92;;
25549;SDS011;13444;50.562;7.262;2023-05-10T06:59:55;2.92;;;2.20;;
25549;SDS011;13444;50.562;7.262;2023-05-10T07:02:21;4.22;;;2.17;;
25549;SDS011;13444;50.562;7.262;2023-05-10T07:04:47;3.45;;;2.50;;
25549;SDS011;13444;50.562;7.262;2023-05-10T07:07:13;4.15;;;2.38;;
25549;SDS011;13444;50.562;7.262;2023-05-10T07:09:39;3.03;;;2.20;;
25549;SDS011;13444;50.562;7.262;2023-05-10T07:12:05;4.47;;;2.10;;
25549;SDS011;13444;50.562;7.262;2023-05-10T07:14:31;6.65;;;2.10;;
25549;SDS011;13444;50.562;7.262;2023-05-10T07:16:56;3.08;;;1.80;;
25549;SDS011;13444;50.562;7.262;2023-05-10T07:19:22;3.45;;;2.00;;
25549;SDS011;13444;50.562;7.262;2023-05-10T07:21:47;2.92;;;2.05;;
25549;SDS011;13444;50.562;7.262;2023-05-10T07:24:13;5.30;;;2.03;;
25549;SDS011;13444;50.562;7.262;2023-05-10T07:26:38;2.42;;;1.67;;
25549;SDS011;13444;50.562;7.262;2023-05-10T07:29:04;2.88;;;1.92;;
25549;SDS011;13444;50.562;7.262;2023-05-10T07:31:29;2.33;;;1.60;;
25549;SDS011;13444;50.562;7.262;2023-05-10T07:33:55;3.65;;;1.83;;
25549;SDS011;13444;50.562;7.262;2023-05-10T07:36:20;2.90;;;1.80;;
25549;SDS011;13444;50.562;7.262;2023-05-10T07:38:46;3.20;;;1.80;;
25549;SDS011;13444;50.562;7.262;2023-05-10T07:41:11;4.78;;;1.92;;
25549;SDS011;13444;50.562;7.262;2023-05-10T07:43:37;3.42;;;1.80;;
25549;SDS011;13444;50.562;7.262;2023-05-10T07:46:03;3.83;;;1.50;;
25549;SDS011;13444;50.562;7.262;2023-05-10T07:48:28;3.08;;;1.70;;
25549;SDS011;13444;50.562;7.262;2023-05-10T07:50:54;3.58;;;2.22;;
25549;SDS011;13444;50.562;7.262;2023-05-10T07:53:19;3.72;;;1.70;;
25549;SDS011;13444;50.562;7.262;2023-05-10T07:55:49;2.33;;;1.73;;
25549;SDS011;13444;50.562;7.262;2023-05-10T07:58:24;5.13;;;2.08;;
25549;SDS011;13444;50.562;7.262;2023-05-10T08:00:50;3.90;;;2.53;;
25549;SDS011;13444;50.562;7.262;2023-05-10T08:03:16;6.57;;;2.50;;
25549;SDS011;13444;50.562;7.262;2023-05-10T08:05:41;3.05;;;1.65;;
25549;SDS011;13444;50.562;7.262;2023-05-10T08:08:07;3.35;;;1.95;;
25549;SDS011;13444;50.562;7.262;2023-05-10T08:10:32;3.92;;;2.28;;
25549;SDS011;13444;50.562;7.262;2023-05-10T08:12:58;3.70;;;2.30;;
25549;SDS011;13444;50.562;7.262;2023-05-10T08:15:24;3.83;;;2.38;;
25549;SDS011;13444;50.562;7.262;2023-05-10T20:16:41;6.03;;;1.60;;
25549;SDS011;13444;50.562;7.262;2023-05-10T20:19:07;2.30;;;1.92;;
25549;SDS011;13444;50.562;7.262;2023-05-10T20:21:32;3.92;;;2.08;;
25549;SDS011;13444;50.562;7.262;2023-05-10T20:23:58;4.90;;;2.50;;
25549;SDS011;13444;50.562;7.262;2023-05-10T20:26:24;5.70;;;2.13;;
25549;SDS011;13444;50.562;7.262;2023-05-10T20:28:49;2.92;;;2.20;;
25549;SDS011;13444;50.562;7.262;2023-05-10T20:31:15;4.13;;;2.30;;
25549;SDS011;13444;50.562;7.262;2023-05-10T20:33:41;4.53;;;2.78;;
25549;SDS011;13444;50.562;7.262;2023-05-10T20:36:06;5.45;;;3.00;;
25549;SDS011;13444;50.562;7.262;2023-05-10T20:38:33;4.55;;;3.30;;
25549;SDS011;13444;50.562;7.262;2023-05-10T20:40:59;4.13;;;3.13;;
25549;SDS011;13444;50.562;7.262;2023-05-10T20:43:25;4.07;;;3.50;;
25549;SDS011;13444;50.562;7.262;2023-05-10T20:45:50;3.33;;;2.95;;
25549;SDS011;13444;50.562;7.262;2023-05-10T20:48:17;3.25;;;2.83;;
25549;SDS011;13444;50.562;7.262;2023-05-10T20:50:43;3.67;;;2.95;;
25549;SDS011;13444;50.562;7.262;2023-05-10T20:53:09;3.95;;;2.30;;
25549;SDS011;13444;50.562;7.262;2023-05-10T20:55:34;6.07;;;2.35;;
25549;SDS011;13444;50.562;7.262;2023-05-10T20:58:00;3.03;;;1.75;;
25549;SDS011;13444;50.562;7.262;2023-05-10T21:00:25;4.80;;;1.75;;
25549;SDS011;13444;50.562;7.262;2023-05-10T21:02:51;5.75;;;1.63;;
25549;SDS011;13444;50.562;7.262;2023-05-10T21:05:16;3.47;;;1.60;;
25549;SDS011;13444;50.562;7.262;2023-05-10T21:07:42;1.85;;;1.38;;
25549;SDS011;13444;50.562;7.262;2023-05-10T21:10:09;1.60;;;1.50;;
25549;SDS011;13444;50.562;7.262;2023-05-10T21:12:35;2.15;;;1.48;;
25549;SDS011;13444;50.562;7.262;2023-05-10T21:15:01;2.22;;;1.27;;
25549;SDS011;13444;50.562;7.262;2023-05-10T21:17:28;1.70;;;1.20;;
25549;SDS011;13444;50.562;7.262;2023-05-10T21:19:53;2.05;;;1.30;;
25549;SDS011;13444;50.562;7.262;2023-05-10T21:22:19;8.88;;;1.48;;
25549;SDS011;13444;50.562;7.262;2023-05-10T21:24:44;3.67;;;1.15;;
25549;SDS011;13444;50.562;7.262;2023-05-10T21:27:10;2.40;;;1.33;;
25549;SDS011;13444;50.562;7.262;2023-05-10T21:29:36;1.77;;;1.00;;
25549;SDS011;13444;50.562;7.262;2023-05-10T21:32:01;2.15;;;1.58;;
25549;SDS011;13444;50.562;7.262;2023-05-10T21:34:27;1.52;;;1.42;;
25549;SDS011;13444;50.562;7.262;2023-05-10T21:36:53;2.22;;;2.03;;
25549;SDS011;13444;50.562;7.262;2023-05-10T21:39:18;3.63;;;2.63;;
25549;SDS011;13444;50.562;7.262;2023-05-10T21:41:44;6.15;;;3.10;;
25549;SDS011;13444;50.562;7.262;2023-05-10T21:44:10;6.80;;;3.65;;
25549;SDS011;13444;50.562;7.262;2023-05-10T21:46:35;7.35;;;3.67;;
25549;SDS011;13444;50.562;7.262;2023-05-10T21:49:01;3.90;;;3.33;;
25549;SDS011;13444;50.562;7.262;2023-05-10T21:51:26;4.85;;;3.50;;
25549;SDS011;13444;50.562;7.262;2023-05-10T21:53:53;5.90;;;3.53;;
25549;SDS011;13444;50.562;7.262;2023-05-10T21:56:18;4.78;;;3.67;;
25549;SDS011;13444;50.562;7.262;2023-05-10T21:58:44;3.92;;;3.15;;
25549;SDS011;13444;50.562;7.262;2023-05-10T22:01:10;6.78;;;4.30;;
25549;SDS011;13444;50.562;7.262;2023-05-10T22:03:36;7.28;;;4.45;;
25549;SDS011;13444;50.562;7.262;2023-05-10T22:06:01;7.28;;;4.45;;
25549;SDS011;13444;50.562;7.262;2023-05-10T22:08:27;7.82;;;3.65;;
25549;SDS011;13444;50.562;7.262;2023-05-10T22:10:52;6.38;;;3.75;;
25549;SDS011;13444;50.562;7.262;2023-05-10T22:13:18;4.15;;;3.55;;
25549;SDS011;13444;50.562;7.262;2023-05-10T22:15:43;3.60;;;3.30;;
25549;SDS011;13444;50.562;7.262;2023-05-10T22:18:09;4.57;;;3.65;;
25549;SDS011;13444;50.562;7.262;2023-05-10T22:20:35;3.33;;;2.90;;
25549;SDS011;13444;50.562;7.262;2023-05-10T22:23:00;2.97;;;2.67;;
25549;SDS011;13444;50.562;7.262;2023-05-10T22:25:26;2.97;;;2.67;;
25549;SDS011;13444;50.562;7.262;2023-05-10T22:27:52;3.10;;;2.50;;
25549;SDS011;13444;50.562;7.262;2023-05-10T22:30:17;2.75;;;2.25;;
25549;SDS011;13444;50.562;7.262;2023-05-10T22:32:43;3.20;;;2.30;;
25549;SDS011;13444;50.562;7.262;2023-05-10T22:35:10;2.95;;;2.20;;
25549;SDS011;13444;50.562;7.262;2023-05-10T22:37:35;2.95;;;1.83;;
25549;SDS011;13444;50.562;7.262;2023-05-10T22:40:01;2.90;;;1.65;;
25549;SDS011;13444;50.562;7.262;2023-05-10T22:42:28;4.55;;;1.77;;
25549;SDS011;13444;50.562;7.262;2023-05-10T22:44:53;1.90;;;1.60;;
25549;SDS011;13444;50.562;7.262;2023-05-10T22:47:19;3.45;;;2.10;;
25549;SDS011;13444;50.562;7.262;2023-05-10T22:49:44;2.63;;;1.90;;
25549;SDS011;13444;50.562;7.262;2023-05-10T22:52:11;3.63;;;1.90;;
25549;SDS011;13444;50.562;7.262;2023-05-10T22:54:36;3.15;;;2.47;;
25549;SDS011;13444;50.562;7.262;2023-05-10T22:57:02;3.50;;;2.40;;
25549;SDS011;13444;50.562;7.262;2023-05-10T22:59:28;3.50;;;2.92;;
25549;SDS011;13444;50.562;7.262;2023-05-10T23:01:54;7.25;;;3.13;;
25549;SDS011;13444;50.562;7.262;2023-05-10T23:04:19;7.60;;;2.75;;
25549;SDS011;13444;50.562;7.262;2023-05-10T23:06:45;4.03;;;1.60;;
25549;SDS011;13444;50.562;7.262;2023-05-10T23:09:10;1.92;;;1.42;;
25549;SDS011;13444;50.562;7.262;2023-05-10T23:11:56;3.28;;;1.65;;
25549;SDS011;13444;50.562;7.262;2023-05-10T23:14:41;4.15;;;1.15;;
25549;SDS011;13444;50.562;7.262;2023-05-10T23:17:30;2.63;;;1.00;;
25549;SDS011;13444;50.562;7.262;2023-05-10T23:20:15;1.45;;;1.00;;
25549;SDS011;13444;50.562;7.262;2023-05-10T23:23:01;3.58;;;1.10;;
25549;SDS011;13444;50.562;7.262;2023-05-10T23:25:46;1.75;;;1.00;;
25549;SDS011;13444;50.562;7.262;2023-05-10T23:28:12;2.17;;;0.98;;
25549;SDS011;13444;50.562;7.262;2023-05-10T23:30:37;1.70;;;1.00;;
25549;SDS011;13444;50.562;7.262;2023-05-10T23:33:03;1.70;;;0.88;;
25549;SDS011;13444;50.562;7.262;2023-05-10T23:35:28;1.27;;;0.90;;
25549;SDS011;13444;50.562;7.262;2023-05-10T23:37:54;1.38;;;0.80;;
25549;SDS011;13444;50.562;7.262;2023-05-10T23:40:20;1.52;;;0.70;;
25549;SDS011;13444;50.562;7.262;2023-05-10T23:42:45;1.23;;;0.50;;
25549;SDS011;13444;50.562;7.262;2023-05-10T23:45:11;0.50;;;0.50;;
25549;SDS011;13444;50.562;7.262;2023-05-10T23:47:36;2.15;;;0.50;;
25549;SDS011;13444;50.562;7.262;2023-05-10T23:50:02;1.50;;;0.60;;
25549;SDS011;13444;50.562;7.262;2023-05-10T23:52:29;0.57;;;0.57;;
25549;SDS011;13444;50.562;7.262;2023-05-10T23:54:54;0.75;;;0.47;;
25549;SDS011;13444;50.562;7.262;2023-05-10T23:57:20;0.50;;;0.50;;
25549;SDS011;13444;50.562;7.262;2023-05-10T23:59:46;0.50;;;0.50;;
